Map

Track Data

SID SEASON NUMBER BASIN SUBBASIN NAME ISO_TIME NATURE LAT LON WMO_WIND WMO_PRES WMO_AGENCY TRACK_TYPE DIST2LAND LANDFALL IFLAG USA_AGENCY USA_ATCF_ID USA_LAT USA_LON USA_RECORD USA_STATUS USA_WIND USA_PRES USA_SSHS USA_R34_NE USA_R34_SE USA_R34_SW USA_R34_NW USA_R50_NE USA_R50_SE USA_R50_SW USA_R50_NW USA_R64_NE USA_R64_SE USA_R64_SW USA_R64_NW USA_POCI USA_ROCI USA_RMW USA_EYE TOKYO_LAT TOKYO_LON TOKYO_GRADE TOKYO_WIND TOKYO_PRES TOKYO_R50_DIR TOKYO_R50_LONG TOKYO_R50_SHORT TOKYO_R30_DIR TOKYO_R30_LONG TOKYO_R30_SHORT TOKYO_LAND CMA_LAT CMA_LON CMA_CAT CMA_WIND CMA_PRES HKO_LAT HKO_LON HKO_CAT HKO_WIND HKO_PRES NEWDELHI_LAT NEWDELHI_LON NEWDELHI_GRADE NEWDELHI_WIND NEWDELHI_PRES NEWDELHI_CI NEWDELHI_DP NEWDELHI_POCI REUNION_LAT REUNION_LON REUNION_TYPE REUNION_WIND REUNION_PRES REUNION_TNUM REUNION_CI REUNION_RMW REUNION_R34_NE REUNION_R34_SE REUNION_R34_SW REUNION_R34_NW REUNION_R50_NE REUNION_R50_SE REUNION_R50_SW REUNION_R50_NW REUNION_R64_NE REUNION_R64_SE REUNION_R64_SW REUNION_R64_NW BOM_LAT BOM_LON BOM_TYPE BOM_WIND BOM_PRES BOM_TNUM BOM_CI BOM_RMW BOM_R34_NE BOM_R34_SE BOM_R34_SW BOM_R34_NW BOM_R50_NE BOM_R50_SE BOM_R50_SW BOM_R50_NW BOM_R64_NE BOM_R64_SE BOM_R64_SW BOM_R64_NW BOM_ROCI BOM_POCI BOM_EYE BOM_POS_METHOD BOM_PRES_METHOD NADI_LAT NADI_LON NADI_CAT NADI_WIND NADI_PRES WELLINGTON_LAT WELLINGTON_LON WELLINGTON_WIND WELLINGTON_PRES DS824_LAT DS824_LON DS824_STAGE DS824_WIND DS824_PRES TD9636_LAT TD9636_LON TD9636_STAGE TD9636_WIND TD9636_PRES TD9635_LAT TD9635_LON TD9635_WIND TD9635_PRES TD9635_ROCI NEUMANN_LAT NEUMANN_LON NEUMANN_CLASS NEUMANN_WIND NEUMANN_PRES MLC_LAT MLC_LON MLC_CLASS MLC_WIND MLC_PRES USA_GUST BOM_GUST BOM_GUST_PER REUNION_GUST REUNION_GUST_PER USA_SEAHGT USA_SEARAD_NE USA_SEARAD_SE USA_SEARAD_SW USA_SEARAD_NW STORM_SPEED STORM_DIR
1901183N09306 1901 20 NA NA NOT_NAMED 1901-07-01 12:00:00 TS 9.00000 -54.0000 35 hurdat_atl main 348 347 O_____________ hurdat_atl AL021901 9.00000 -54.0000 TS 35 0 11 296
1901183N09306 1901 20 NA NA NOT_NAMED 1901-07-01 15:00:00 TS 9.22758 -54.4800 main 369 369 P_____________ AL021901 9.22758 -54.4800 TS 35 0 11 297
1901183N09306 1901 20 NA NA NOT_NAMED 1901-07-01 18:00:00 TS 9.50000 -55.0000 35 hurdat_atl main 403 403 O_____________ hurdat_atl AL021901 9.50000 -55.0000 TS 35 0 13 299
1901183N09306 1901 20 NA NA NOT_NAMED 1901-07-01 21:00:00 TS 9.84247 -55.5850 main 423 394 P_____________ AL021901 9.84247 -55.5850 TS 35 0 14 301
1901183N09306 1901 20 NA NA NOT_NAMED 1901-07-02 00:00:00 TS 10.2000 -56.2000 35 hurdat_atl main 394 368 O_____________ hurdat_atl AL021901 10.2000 -56.2000 TS 35 0 14 299
1901183N09306 1901 20 NA NA NOT_NAMED 1901-07-02 03:00:00 TS 10.4998 -56.7927 main 369 355 P_____________ AL021901 10.4998 -56.7927 TS 35 0 13 297
1901183N09306 1901 20 NA NA NOT_NAMED 1901-07-02 06:00:00 TS 10.8000 -57.4000 35 hurdat_atl main 359 330 O_____________ hurdat_atl AL021901 10.8000 -57.4000 TS 35 0 14 297
1901183N09306 1901 20 NA NA NOT_NAMED 1901-07-02 09:00:00 TS 11.1349 -58.0352 main 330 266 P_____________ AL021901 11.1349 -58.0352 TS 35 0 15 299
1901183N09306 1901 20 NA NA NOT_NAMED 1901-07-02 12:00:00 TS 11.5000 -58.7000 35 hurdat_atl main 266 222 O_____________ hurdat_atl AL021901 11.5000 -58.7000 TS 35 0 15 300
1901183N09306 1901 20 NA NA NOT_NAMED 1901-07-02 15:00:00 TS 11.8846 -59.3629 main 220 200 P_____________ AL021901 11.8846 -59.3629 TS 35 0 16 300
1901183N09306 1901 20 NA CS NOT_NAMED 1901-07-02 18:00:00 TS 12.3000 -60.1000 35 hurdat_atl main 204 199 O_____________ hurdat_atl AL021901 12.3000 -60.1000 TS 35 0 18 298
1901183N09306 1901 20 NA CS NOT_NAMED 1901-07-02 21:00:00 TS 12.7351 -60.9777 main 223 223 P_____________ AL021901 12.7351 -60.9777 TS 35 0 20 297
1901183N09306 1901 20 NA CS NOT_NAMED 1901-07-03 00:00:00 TS 13.2000 -61.9000 35 hurdat_atl main 280 280 O_____________ hurdat_atl AL021901 13.2000 -61.9000 TS 35 0 20 299
1901183N09306 1901 20 NA CS NOT_NAMED 1901-07-03 03:00:00 TS 13.6843 -62.7282 main 335 335 P_____________ AL021901 13.6843 -62.7282 TS 37 0 19 301
1901183N09306 1901 20 NA CS NOT_NAMED 1901-07-03 06:00:00 TS 14.2000 -63.6000 40 hurdat_atl main 395 390 O_____________ hurdat_atl AL021901 14.2000 -63.6000 TS 40 0 22 300
1901183N09306 1901 20 NA CS NOT_NAMED 1901-07-03 09:00:00 TS 14.7803 -64.6495 main 380 297 P_____________ AL021901 14.7803 -64.6495 TS 40 0 23 298
1901183N09306 1901 20 NA CS NOT_NAMED 1901-07-03 12:00:00 TS 15.3000 -65.7000 40 hurdat_atl main 295 257 O_____________ hurdat_atl AL021901 15.3000 -65.7000 TS 40 0 21 295
1901183N09306 1901 20 NA CS NOT_NAMED 1901-07-03 15:00:00 TS 15.6517 -66.5732 main 248 223 P_____________ AL021901 15.6517 -66.5732 TS 40 0 17 290
1901183N09306 1901 20 NA CS NOT_NAMED 1901-07-03 18:00:00 TS 15.9000 -67.4000 40 hurdat_atl main 224 216 O_____________ hurdat_atl AL021901 15.9000 -67.4000 TS 40 0 17 286
1901183N09306 1901 20 NA CS NOT_NAMED 1901-07-03 21:00:00 TS 16.1224 -68.3077 main 232 213 P_____________ AL021901 16.1224 -68.3077 TS 42 0 18 283
1901183N09306 1901 20 NA CS NOT_NAMED 1901-07-04 00:00:00 TS 16.3000 -69.2000 45 hurdat_atl main 216 200 O_____________ hurdat_atl AL021901 16.3000 -69.2000 TS 45 0 17 281
1901183N09306 1901 20 NA CS NOT_NAMED 1901-07-04 03:00:00 TS 16.4494 -70.0079 main 200 128 P_____________ AL021901 16.4494 -70.0079 TS 47 0 16 281
1901183N09306 1901 20 NA CS NOT_NAMED 1901-07-04 06:00:00 TS 16.6000 -70.8000 50 hurdat_atl main 128 90 O_____________ hurdat_atl AL021901 16.6000 -70.8000 TS 50 0 16 282
1901183N09306 1901 20 NA CS NOT_NAMED 1901-07-04 09:00:00 TS 16.7927 -71.6874 main 95 95 P_____________ AL021901 16.7927 -71.6874 TS 52 0 17 284
1901183N09306 1901 20 NA CS NOT_NAMED 1901-07-04 12:00:00 TS 17.0000 -72.5000 55 hurdat_atl main 127 102 O_____________ hurdat_atl AL021901 17.0000 -72.5000 TS 55 0 14 287
1901183N09306 1901 20 NA CS NOT_NAMED 1901-07-04 15:00:00 TS 17.1995 -73.1027 main 105 70 P_____________ AL021901 17.1995 -73.1027 TS 55 0 11 291
1901183N09306 1901 20 NA CS NOT_NAMED 1901-07-04 18:00:00 TS 17.4000 -73.6000 55 hurdat_atl main 70 45 O_____________ hurdat_atl AL021901 17.4000 -73.6000 TS 55 0 10 292
1901183N09306 1901 20 NA CS NOT_NAMED 1901-07-04 21:00:00 TS 17.5924 -74.1152 main 49 49 P_____________ AL021901 17.5924 -74.1152 TS 57 0 10 293
1901183N09306 1901 20 NA CS NOT_NAMED 1901-07-05 00:00:00 TS 17.8000 -74.6000 60 hurdat_atl main 59 54 O_____________ hurdat_atl AL021901 17.8000 -74.6000 TS 60 0 10 297
1901183N09306 1901 20 NA CS NOT_NAMED 1901-07-05 03:00:00 TS 18.0498 -75.0501 main 77 71 P_____________ AL021901 18.0498 -75.0501 TS 60 0 10 300
1901183N09306 1901 20 NA CS NOT_NAMED 1901-07-05 06:00:00 TS 18.3000 -75.5000 60 hurdat_atl main 85 46 O_____________ hurdat_atl AL021901 18.3000 -75.5000 TS 60 0 10 298
1901183N09306 1901 20 NA CS NOT_NAMED 1901-07-05 09:00:00 TS 18.5225 -76.0000 main 46 39 P_____________ AL021901 18.5225 -76.0000 TS 60 0 10 293
1901183N09306 1901 20 NA CS NOT_NAMED 1901-07-05 12:00:00 TS 18.7000 -76.5000 60 hurdat_atl main 53 39 O_____________ hurdat_atl AL021901 18.7000 -76.5000 TS 60 0 10 287
1901183N09306 1901 20 NA CS NOT_NAMED 1901-07-05 15:00:00 TS 18.8073 -76.9577 main 44 44 P_____________ AL021901 18.8073 -76.9577 TS 60 0 9 283
1901183N09306 1901 20 NA CS NOT_NAMED 1901-07-05 18:00:00 TS 18.9000 -77.4000 60 hurdat_atl main 55 55 O_____________ hurdat_atl AL021901 18.9000 -77.4000 TS 60 0 9 286
1901183N09306 1901 20 NA CS NOT_NAMED 1901-07-05 21:00:00 TS 19.0498 -77.8425 main 67 67 P_____________ AL021901 19.0498 -77.8425 TS 60 0 9 289
1901183N09306 1901 20 NA CS NOT_NAMED 1901-07-06 00:00:00 TS 19.2000 -78.3000 60 hurdat_atl main 89 89 O_____________ hurdat_atl AL021901 19.2000 -78.3000 TS 60 0 9 286
1901183N09306 1901 20 NA CS NOT_NAMED 1901-07-06 03:00:00 TS 19.2999 -78.7927 main 113 113 P_____________ AL021901 19.2999 -78.7927 TS 60 0 10 282
1901183N09306 1901 20 NA CS NOT_NAMED 1901-07-06 06:00:00 TS 19.4000 -79.3000 60 hurdat_atl main 153 153 O_____________ hurdat_atl AL021901 19.4000 -79.3000 TS 60 0 10 284
1901183N09306 1901 20 NA CS NOT_NAMED 1901-07-06 09:00:00 TS 19.5350 -79.8225 main 200 200 P_____________ AL021901 19.5350 -79.8225 TS 60 0 10 288
1901183N09306 1901 20 NA CS NOT_NAMED 1901-07-06 12:00:00 TS 19.7000 -80.3000 60 hurdat_atl main 225 210 O_____________ hurdat_atl AL021901 19.7000 -80.3000 TS 60 0 9 294
1901183N09306 1901 20 NA CS NOT_NAMED 1901-07-06 15:00:00 TS 19.8847 -80.6577 main 214 201 P_____________ AL021901 19.8847 -80.6577 TS 60 0 8 301
1901183N09306 1901 20 NA CS NOT_NAMED 1901-07-06 18:00:00 TS 20.1000 -81.0000 60 hurdat_atl main 206 184 O_____________ hurdat_atl AL021901 20.1000 -81.0000 TS 60 0 9 302
1901183N09306 1901 20 NA CS NOT_NAMED 1901-07-06 21:00:00 TS 20.3501 -81.4499 main 176 127 P_____________ AL021901 20.3501 -81.4499 TS 60 0 10 301
1901183N09306 1901 20 NA CS NOT_NAMED 1901-07-07 00:00:00 TS 20.6000 -81.9000 60 hurdat_atl main 127 91 O_____________ hurdat_atl AL021901 20.6000 -81.9000 TS 60 0 9 301
1901183N09306 1901 20 NA CS NOT_NAMED 1901-07-07 03:00:00 TS 20.7997 -82.2503 main 84 49 P_____________ AL021901 20.7997 -82.2503 TS 60 0 8 301
1901183N09306 1901 20 NA CS NOT_NAMED 1901-07-07 06:00:00 TS 21.0000 -82.6000 60 hurdat_atl main 49 24 O_____________ hurdat_atl AL021901 21.0000 -82.6000 TS 60 0 9 301
1901183N09306 1901 20 NA CS NOT_NAMED 1901-07-07 09:00:00 TS 21.2500 -83.0424 main 22 22 P_____________ AL021901 21.2500 -83.0424 TS 60 0 10 301
1901183N09306 1901 20 NA CS NOT_NAMED 1901-07-07 12:00:00 TS 21.5000 -83.5000 60 hurdat_atl main 51 24 O_____________ hurdat_atl AL021901 21.5000 -83.5000 TS 60 0 9 300
1901183N09306 1901 20 NA CS NOT_NAMED 1901-07-07 15:00:00 TS 21.7149 -83.9151 main 24 0 P_____________ AL021901 21.7149 -83.9151 TS 60 0 8 298
1901183N09306 1901 20 NA CS NOT_NAMED 1901-07-07 18:00:00 TS 21.9000 -84.3000 60 hurdat_atl main 0 0 O_____________ hurdat_atl AL021901 21.9000 -84.3000 TS 60 0 8 296
1901183N09306 1901 20 NA GM NOT_NAMED 1901-07-07 21:00:00 TS 22.0498 -84.6428 main 11 11 P_____________ AL021901 22.0498 -84.6428 TS 60 0 7 295
1901183N09306 1901 20 NA GM NOT_NAMED 1901-07-08 00:00:00 TS 22.2000 -85.0000 60 hurdat_atl main 33 33 O_____________ hurdat_atl AL021901 22.2000 -85.0000 TS 60 0 8 295
1901183N09306 1901 20 NA GM NOT_NAMED 1901-07-08 03:00:00 TS 22.3924 -85.4201 main 69 69 P_____________ AL021901 22.3924 -85.4201 TS 60 0 9 296
1901183N09306 1901 20 NA GM NOT_NAMED 1901-07-08 06:00:00 TS 22.6000 -85.9000 60 hurdat_atl main 121 121 O_____________ hurdat_atl AL021901 22.6000 -85.9000 TS 60 0 10 293
1901183N09306 1901 20 NA GM NOT_NAMED 1901-07-08 09:00:00 TS 22.7926 -86.4501 main 154 151 P_____________ AL021901 22.7926 -86.4501 TS 60 0 11 292
1901183N09306 1901 20 NA GM NOT_NAMED 1901-07-08 12:00:00 TS 23.0000 -87.0000 60 hurdat_atl main 167 167 O_____________ hurdat_atl AL021901 23.0000 -87.0000 TS 60 0 10 295
1901183N09306 1901 20 NA GM NOT_NAMED 1901-07-08 15:00:00 TS 23.2348 -87.4727 main 191 191 P_____________ AL021901 23.2348 -87.4727 TS 60 0 10 301
1901183N09306 1901 20 NA GM NOT_NAMED 1901-07-08 18:00:00 TS 23.5000 -87.9000 60 hurdat_atl main 223 223 O_____________ hurdat_atl AL021901 23.5000 -87.9000 TS 60 0 9 306
1901183N09306 1901 20 NA GM NOT_NAMED 1901-07-08 21:00:00 TS 23.7848 -88.3003 main 257 257 P_____________ AL021901 23.7848 -88.3003 TS 60 0 9 309
1901183N09306 1901 20 NA GM NOT_NAMED 1901-07-09 00:00:00 TS 24.1000 -88.7000 60 hurdat_atl main 290 290 O_____________ hurdat_atl AL021901 24.1000 -88.7000 TS 60 0 10 311
1901183N09306 1901 20 NA GM NOT_NAMED 1901-07-09 03:00:00 TS 24.4574 -89.1424 main 339 339 P_____________ AL021901 24.4574 -89.1424 TS 60 0 11 311
1901183N09306 1901 20 NA GM NOT_NAMED 1901-07-09 06:00:00 TS 24.8000 -89.6000 60 hurdat_atl main 382 382 O_____________ hurdat_atl AL021901 24.8000 -89.6000 TS 60 0 10 307
1901183N09306 1901 20 NA GM NOT_NAMED 1901-07-09 09:00:00 TS 25.0495 -90.0133 main 416 416 P_____________ AL021901 25.0495 -90.0133 TS 60 0 10 301
1901183N09306 1901 20 NA GM NOT_NAMED 1901-07-09 12:00:00 TS 25.3000 -90.5000 60 hurdat_atl main 424 390 O_____________ hurdat_atl AL021901 25.3000 -90.5000 TS 60 0 12 299
1901183N09306 1901 20 NA GM NOT_NAMED 1901-07-09 15:00:00 TS 25.6199 -91.1479 main 391 357 P_____________ AL021901 25.6199 -91.1479 TS 60 0 14 299
1901183N09306 1901 20 NA GM NOT_NAMED 1901-07-09 18:00:00 TS 26.0000 -91.9000 60 hurdat_atl main 359 344 O_____________ hurdat_atl AL021901 26.0000 -91.9000 TS 60 0 16 300
1901183N09306 1901 20 NA GM NOT_NAMED 1901-07-09 21:00:00 TS 26.4274 -92.6928 main 348 287 P_____________ AL021901 26.4274 -92.6928 TS 57 0 17 302
1901183N09306 1901 20 NA GM NOT_NAMED 1901-07-10 00:00:00 TS 26.9000 -93.5000 55 hurdat_atl main 287 203 O_____________ hurdat_atl AL021901 26.9000 -93.5000 TS 55 0 17 305
1901183N09306 1901 20 NA GM NOT_NAMED 1901-07-10 03:00:00 TS 27.3879 -94.2577 main 199 118 P_____________ AL021901 27.3879 -94.2577 TS 52 0 17 307
1901183N09306 1901 20 NA GM NOT_NAMED 1901-07-10 06:00:00 TS 27.9000 -95.0000 50 hurdat_atl main 118 36 O_____________ hurdat_atl AL021901 27.9000 -95.0000 TS 50 0 17 308
1901183N09306 1901 20 NA GM NOT_NAMED 1901-07-10 09:00:00 TS 28.4340 -95.7501 main 29 0 P_____________ AL021901 28.4340 -95.7501 TS 46 0 17 309
1901183N09306 1901 20 NA GM NOT_NAMED 1901-07-10 10:00:00 TS 28.6000 -96.0000 45 hurdat_atl main 0 0 O_____________ hurdat_atl AL021901 28.6000 -96.0000 L TS 45 0 16 305
1901183N09306 1901 20 NA NA NOT_NAMED 1901-07-10 12:00:00 TS 28.9000 -96.5000 35 hurdat_atl main 0 0 O_____________ hurdat_atl AL021901 28.9000 -96.5000 TS 35 0 16 308
1901183N09306 1901 20 NA NA NOT_NAMED 1901-07-10 15:00:00 TS 29.4180 -97.1774 main 0 0 P_____________ AL021901 29.4180 -97.1774 TS 32 -1 16 314
1901183N09306 1901 20 NA NA NOT_NAMED 1901-07-10 18:00:00 TS 30.0000 -97.8000 30 hurdat_atl main 0 O_____________ hurdat_atl AL021901 30.0000 -97.8000 TD 30 -1 16 317

About IBTrACS Database

This database is a web-friendly format of International Best Track Archive for Climate Stewardship (IBTrACS), a global best track data archive curated by NOAA dating back to 1842.

Updated: 2021-10-21